createdAt,value
2019-05-11T00:00:10.567Z,1005.47
2019-05-11T00:01:10.583Z,1005.47
2019-05-11T00:02:10.569Z,1005.49
2019-05-11T00:03:10.564Z,1005.47
2019-05-11T00:04:10.757Z,1005.48
2019-05-11T00:05:10.551Z,1005.45
2019-05-11T00:06:10.543Z,1005.42
2019-05-11T00:08:10.546Z,1005.40
2019-05-11T00:09:10.533Z,1005.40
2019-05-11T00:10:10.533Z,1005.41
2019-05-11T00:11:10.531Z,1005.40
2019-05-11T00:12:10.519Z,1005.38
2019-05-11T00:13:10.521Z,1005.39
2019-05-11T00:14:10.519Z,1005.41
2019-05-11T00:15:10.506Z,1005.40
2019-05-11T00:16:10.519Z,1005.37
2019-05-11T00:17:10.494Z,1005.30
2019-05-11T00:18:10.501Z,1005.32
2019-05-11T00:19:10.499Z,1005.34
2019-05-11T00:20:10.512Z,1005.29
2019-05-11T00:21:10.491Z,1005.25
2019-05-11T00:22:10.489Z,1005.28
2019-05-11T00:23:10.478Z,1005.25
2019-05-11T00:24:10.479Z,1005.23
2019-05-11T00:25:10.477Z,1005.26
2019-05-11T00:26:10.469Z,1005.23
2019-05-11T00:27:10.476Z,1005.24
2019-05-11T00:28:10.468Z,1005.20
2019-05-11T00:29:10.461Z,1005.22
2019-05-11T00:30:10.451Z,1005.20
2019-05-11T00:31:10.438Z,1005.22
2019-05-11T00:32:10.441Z,1005.23
2019-05-11T00:33:10.427Z,1005.26
2019-05-11T00:34:10.460Z,1005.26
2019-05-11T00:35:10.424Z,1005.21
2019-05-11T00:36:10.428Z,1005.20
2019-05-11T00:37:10.439Z,1005.23
2019-05-11T00:38:10.425Z,1005.21
2019-05-11T00:39:10.417Z,1005.26
2019-05-11T00:40:14.549Z,1005.24
2019-05-11T00:41:10.605Z,1005.23
2019-05-11T00:42:10.398Z,1005.23
2019-05-11T00:43:10.394Z,1005.24
2019-05-11T00:44:10.386Z,1005.23
2019-05-11T00:45:10.378Z,1005.23
2019-05-11T00:46:10.378Z,1005.21
2019-05-11T00:47:10.369Z,1005.20
2019-05-11T00:48:10.601Z,1005.18
2019-05-11T00:49:10.360Z,1005.19
2019-05-11T00:50:10.371Z,1005.17
2019-05-11T00:51:10.357Z,1005.17
2019-05-11T00:52:10.572Z,1005.23
2019-05-11T00:53:10.370Z,1005.19
2019-05-11T00:54:10.547Z,1005.19
2019-05-11T00:55:10.346Z,1005.22
2019-05-11T00:56:10.350Z,1005.21
2019-05-11T00:57:10.555Z,1005.21
2019-05-11T00:58:10.335Z,1005.21
2019-05-11T00:59:21.456Z,1005.23
2019-05-11T01:00:10.322Z,1005.20
2019-05-11T01:01:10.517Z,1005.21
2019-05-11T01:02:10.319Z,1005.20
2019-05-11T01:03:10.321Z,1005.23
2019-05-11T01:04:10.299Z,1005.20
2019-05-11T01:05:10.314Z,1005.18
2019-05-11T01:06:10.337Z,1005.15
2019-05-11T01:07:10.322Z,1005.15
2019-05-11T01:08:10.297Z,1005.17
2019-05-11T01:09:10.300Z,1005.17
2019-05-11T01:10:23.074Z,1005.18
2019-05-11T01:11:10.282Z,1005.16
2019-05-11T01:12:10.269Z,1005.15
2019-05-11T01:13:10.273Z,1005.16
2019-05-11T01:14:10.273Z,1005.16
2019-05-11T01:15:10.261Z,1005.16
2019-05-11T01:16:10.265Z,1005.15
2019-05-11T01:17:10.459Z,1005.12
2019-05-11T01:18:10.241Z,1005.09
2019-05-11T01:19:10.254Z,1005.11
2019-05-11T01:20:10.236Z,1005.09
2019-05-11T01:21:10.452Z,1005.06
2019-05-11T01:22:10.237Z,1005.06
2019-05-11T01:23:10.226Z,1005.08
2019-05-11T01:24:10.498Z,1005.11
2019-05-11T01:25:10.214Z,1005.08
2019-05-11T01:26:10.216Z,1005.05
2019-05-11T01:27:10.214Z,1005.04
2019-05-11T01:28:10.409Z,1005.04
2019-05-11T01:29:10.198Z,1005.01
2019-05-11T01:30:10.205Z,1004.97
2019-05-11T01:31:10.195Z,1004.94
2019-05-11T01:32:10.192Z,1004.95
2019-05-11T01:33:10.177Z,1004.93
2019-05-11T01:34:10.176Z,1004.92
2019-05-11T01:35:10.168Z,1004.88
2019-05-11T01:36:10.165Z,1004.86
2019-05-11T01:37:10.366Z,1004.88
2019-05-11T01:38:10.172Z,1004.89
2019-05-11T01:39:10.150Z,1004.84
2019-05-11T01:40:10.360Z,1004.89
2019-05-11T01:41:10.359Z,1004.89
2019-05-11T01:42:10.140Z,1004.90
2019-05-11T01:43:10.136Z,1004.95
2019-05-11T01:44:10.196Z,1004.96
2019-05-11T01:45:10.132Z,1004.98
2019-05-11T01:46:10.131Z,1004.96
2019-05-11T01:47:10.146Z,1004.94
2019-05-11T01:48:10.116Z,1004.90
2019-05-11T01:49:10.109Z,1004.93
2019-05-11T01:50:10.105Z,1004.91
2019-05-11T01:51:10.120Z,1004.90
2019-05-11T01:52:10.104Z,1004.86
2019-05-11T01:53:10.104Z,1004.81
2019-05-11T01:54:10.123Z,1004.82
2019-05-11T01:55:10.105Z,1004.77
2019-05-11T01:56:10.285Z,1004.77
2019-05-11T01:57:10.288Z,1004.78
2019-05-11T01:58:10.090Z,1004.76
2019-05-11T01:59:10.280Z,1004.74
2019-05-11T02:00:10.065Z,1004.70
2019-05-11T02:01:10.076Z,1004.68
2019-05-11T02:02:10.066Z,1004.71
2019-05-11T02:03:10.058Z,1004.68
2019-05-11T02:04:10.049Z,1004.68
2019-05-11T02:05:10.045Z,1004.69
2019-05-11T02:06:10.048Z,1004.69
2019-05-11T02:07:10.261Z,1004.68
2019-05-11T02:08:10.234Z,1004.69
2019-05-11T02:09:10.050Z,1004.70
2019-05-11T02:10:10.030Z,1004.70
2019-05-11T02:11:15.973Z,1004.68
2019-05-11T02:12:10.010Z,1004.67
2019-05-11T02:13:10.003Z,1004.67
2019-05-11T02:14:10.006Z,1004.68
2019-05-11T02:15:10.222Z,1004.62
2019-05-11T02:16:09.993Z,1004.68
2019-05-11T02:17:09.990Z,1004.67
2019-05-11T02:18:10.008Z,1004.69
2019-05-11T02:19:09.990Z,1004.72
2019-05-11T02:20:09.979Z,1004.72
2019-05-11T02:21:09.971Z,1004.79
2019-05-11T02:22:09.973Z,1004.74
2019-05-11T02:23:10.181Z,1004.80
2019-05-11T02:24:09.960Z,1004.76
2019-05-11T02:25:09.972Z,1004.72
2019-05-11T02:26:09.961Z,1004.74
2019-05-11T02:27:10.165Z,1004.76
2019-05-11T02:28:09.944Z,1004.75
2019-05-11T02:29:09.956Z,1004.79
2019-05-11T02:30:09.947Z,1004.80
2019-05-11T02:31:09.937Z,1004.77
2019-05-11T02:32:09.933Z,1004.78
2019-05-11T02:33:10.127Z,1004.80
2019-05-11T02:34:09.927Z,1004.78
2019-05-11T02:35:09.938Z,1004.74
2019-05-11T02:36:09.923Z,1004.76
2019-05-11T02:37:09.912Z,1004.74
2019-05-11T02:38:09.905Z,1004.74
2019-05-11T02:39:09.920Z,1004.71
2019-05-11T02:40:09.899Z,1004.70
2019-05-11T02:41:10.101Z,1004.70
2019-05-11T02:42:10.101Z,1004.71
2019-05-11T02:43:10.090Z,1004.67
2019-05-11T02:44:09.902Z,1004.66
2019-05-11T02:45:09.888Z,1004.66
2019-05-11T02:46:09.868Z,1004.69
2019-05-11T02:48:10.085Z,1004.66
2019-05-11T02:49:09.874Z,1004.69
2019-05-11T02:50:09.852Z,1004.65
2019-05-11T02:51:09.865Z,1004.69
2019-05-11T02:52:09.851Z,1004.70
2019-05-11T02:53:09.843Z,1004.73
2019-05-11T02:54:09.837Z,1004.73
2019-05-11T02:55:09.846Z,1004.67
2019-05-11T02:56:09.841Z,1004.70
2019-05-11T02:57:09.855Z,1004.72
2019-05-11T02:58:09.825Z,1004.68
2019-05-11T02:59:09.826Z,1004.72
2019-05-11T03:00:09.829Z,1004.69
2019-05-11T03:01:09.830Z,1004.75
2019-05-11T03:02:09.815Z,1004.68
2019-05-11T03:03:09.824Z,1004.67
2019-05-11T03:04:10.010Z,1004.67
2019-05-11T03:05:09.805Z,1004.69
2019-05-11T03:06:09.804Z,1004.72
2019-05-11T03:07:09.785Z,1004.71
2019-05-11T03:08:09.784Z,1004.78
2019-05-11T03:09:09.783Z,1004.74
2019-05-11T03:10:09.772Z,1004.74
2019-05-11T03:11:09.777Z,1004.75
2019-05-11T03:12:09.812Z,1004.71
2019-05-11T03:13:09.776Z,1004.70
2019-05-11T03:14:09.760Z,1004.68
2019-05-11T03:15:09.767Z,1004.69
2019-05-11T03:16:09.739Z,1004.68
2019-05-11T03:17:09.740Z,1004.69
2019-05-11T03:18:09.731Z,1004.68
2019-05-11T03:19:09.750Z,1004.73
2019-05-11T03:20:09.740Z,1004.69
2019-05-11T03:21:09.729Z,1004.72
2019-05-11T03:22:09.727Z,1004.67
2019-05-11T03:23:09.740Z,1004.70
2019-05-11T03:24:09.716Z,1004.70
2019-05-11T03:25:09.715Z,1004.72
2019-05-11T03:26:09.749Z,1004.72
2019-05-11T03:27:09.725Z,1004.72
2019-05-11T03:28:09.703Z,1004.82
2019-05-11T03:29:09.902Z,1004.85
2019-05-11T03:30:09.686Z,1004.84
2019-05-11T03:31:09.684Z,1004.85
2019-05-11T03:32:09.904Z,1004.91
2019-05-11T03:33:09.677Z,1004.89
2019-05-11T03:34:09.670Z,1004.90
2019-05-11T03:35:09.882Z,1004.91
2019-05-11T03:36:09.673Z,1004.90
2019-05-11T03:37:09.672Z,1004.88
2019-05-11T03:38:09.669Z,1004.87
2019-05-11T03:39:09.645Z,1004.86
2019-05-11T03:40:09.638Z,1004.85
2019-05-11T03:41:09.842Z,1004.88
2019-05-11T03:42:14.831Z,1004.87
2019-05-11T03:43:09.846Z,1004.85
2019-05-11T03:44:09.640Z,1004.85
2019-05-11T03:45:09.620Z,1004.82
2019-05-11T03:46:09.630Z,1004.83
2019-05-11T03:47:09.613Z,1004.77
2019-05-11T03:48:09.608Z,1004.82
2019-05-11T03:49:09.607Z,1004.83
2019-05-11T03:50:09.610Z,1004.85
2019-05-11T03:51:09.594Z,1004.88
2019-05-11T03:52:09.589Z,1004.86
2019-05-11T03:53:09.588Z,1004.85
2019-05-11T03:54:09.579Z,1004.89
2019-05-11T03:55:09.586Z,1004.83
2019-05-11T03:56:09.593Z,1004.86
2019-05-11T03:57:09.783Z,1004.86
2019-05-11T03:58:09.577Z,1004.84
2019-05-11T03:59:09.776Z,1004.88
2019-05-11T04:00:09.567Z,1004.79
2019-05-11T04:01:09.559Z,1004.82
2019-05-11T04:02:09.551Z,1004.79
2019-05-11T04:03:09.549Z,1004.77
2019-05-11T04:04:09.532Z,1004.76
2019-05-11T04:05:09.532Z,1004.79
2019-05-11T04:06:09.531Z,1004.73
2019-05-11T04:07:09.531Z,1004.74
2019-05-11T04:08:09.522Z,1004.75
2019-05-11T04:09:09.510Z,1004.71
2019-05-11T04:10:09.508Z,1004.73
2019-05-11T04:11:09.512Z,1004.75
2019-05-11T04:12:09.515Z,1004.75
2019-05-11T04:13:09.501Z,1004.76
2019-05-11T04:14:09.495Z,1004.72
2019-05-11T04:15:09.528Z,1004.71
2019-05-11T04:16:09.484Z,1004.72
2019-05-11T04:17:09.476Z,1004.70
2019-05-11T04:18:09.486Z,1004.70
2019-05-11T04:19:09.489Z,1004.68
2019-05-11T04:20:09.471Z,1004.67
2019-05-11T04:21:09.662Z,1004.65
2019-05-11T04:22:09.677Z,1004.64
2019-05-11T04:23:09.474Z,1004.66
2019-05-11T04:24:09.455Z,1004.66
2019-05-11T04:25:09.442Z,1004.65
2019-05-11T04:26:09.440Z,1004.67
2019-05-11T04:27:09.438Z,1004.64
2019-05-11T04:28:09.443Z,1004.71
2019-05-11T04:29:09.631Z,1004.71
2019-05-11T04:30:09.426Z,1004.72
2019-05-11T04:31:09.413Z,1004.72
2019-05-11T04:32:09.401Z,1004.75
2019-05-11T04:33:09.405Z,1004.73
2019-05-11T04:34:09.409Z,1004.71
2019-05-11T04:35:09.403Z,1004.73
2019-05-11T04:36:09.387Z,1004.76
2019-05-11T04:37:09.398Z,1004.75
2019-05-11T04:38:09.395Z,1004.76
2019-05-11T04:39:09.373Z,1004.73
2019-05-11T04:40:09.385Z,1004.75
2019-05-11T04:41:09.362Z,1004.75
2019-05-11T04:42:09.381Z,1004.78
2019-05-11T04:43:09.370Z,1004.79
2019-05-11T04:44:09.365Z,1004.76
2019-05-11T04:45:09.345Z,1004.78
2019-05-11T04:46:09.339Z,1004.79
2019-05-11T04:47:09.353Z,1004.78
2019-05-11T04:48:09.348Z,1004.76
2019-05-11T04:49:09.329Z,1004.77
2019-05-11T04:50:09.405Z,1004.73
2019-05-11T04:51:09.332Z,1004.79
2019-05-11T04:52:09.310Z,1004.78
2019-05-11T04:53:09.323Z,1004.73
2019-05-11T04:54:09.306Z,1004.73
2019-05-11T04:55:09.300Z,1004.75
2019-05-11T04:56:09.301Z,1004.74
2019-05-11T04:57:09.317Z,1004.76
2019-05-11T04:58:09.310Z,1004.74
2019-05-11T04:59:09.285Z,1004.73
2019-05-11T05:00:09.296Z,1004.73
2019-05-11T05:01:09.278Z,1004.79
2019-05-11T05:02:09.281Z,1004.75
2019-05-11T05:03:10.034Z,1004.79
2019-05-11T05:04:14.043Z,1004.78
2019-05-11T05:05:09.254Z,1004.80
2019-05-11T05:06:21.739Z,1004.82
2019-05-11T05:07:10.664Z,1004.83
2019-05-11T05:08:10.095Z,1004.81
2019-05-11T05:09:09.284Z,1004.80
2019-05-11T05:10:13.963Z,1004.80
2019-05-11T05:11:09.236Z,1004.80
2019-05-11T05:12:14.216Z,1004.83
2019-05-11T05:13:10.900Z,1004.78
2019-05-11T05:14:10.415Z,1004.80
2019-05-11T05:15:09.410Z,1004.78
2019-05-11T05:16:09.402Z,1004.80
2019-05-11T05:17:09.196Z,1004.79
2019-05-11T05:18:09.199Z,1004.82
2019-05-11T05:19:09.199Z,1004.80
2019-05-11T05:20:09.208Z,1004.80
2019-05-11T05:21:09.179Z,1004.78
2019-05-11T05:22:09.176Z,1004.83
2019-05-11T05:23:09.180Z,1004.79
2019-05-11T05:24:09.387Z,1004.80
2019-05-11T05:25:09.160Z,1004.80
2019-05-11T05:26:09.165Z,1004.79
2019-05-11T05:27:09.157Z,1004.82
2019-05-11T05:28:09.160Z,1004.81
2019-05-11T05:29:09.145Z,1004.83
2019-05-11T05:30:09.358Z,1004.83
2019-05-11T05:31:09.132Z,1004.88
2019-05-11T05:32:09.144Z,1004.89
2019-05-11T05:33:09.135Z,1004.88
2019-05-11T05:34:09.121Z,1004.86
2019-05-11T05:35:09.127Z,1004.87
2019-05-11T05:36:09.128Z,1004.84
2019-05-11T05:37:09.117Z,1004.82
2019-05-11T05:38:09.129Z,1004.85
2019-05-11T05:39:09.593Z,1004.83
2019-05-11T05:40:09.096Z,1004.82
2019-05-11T05:41:09.301Z,1004.76
2019-05-11T05:42:09.093Z,1004.77
2019-05-11T05:43:09.100Z,1004.76
2019-05-11T05:44:09.081Z,1004.73
2019-05-11T05:45:09.073Z,1004.77
2019-05-11T05:46:09.076Z,1004.74
2019-05-11T05:47:09.079Z,1004.78
2019-05-11T05:48:09.069Z,1004.75
2019-05-11T05:49:09.056Z,1004.79
2019-05-11T05:50:09.056Z,1004.80
2019-05-11T05:51:09.070Z,1004.81
2019-05-11T05:52:09.272Z,1004.79
2019-05-11T05:53:09.049Z,1004.81
2019-05-11T05:54:09.034Z,1004.80
2019-05-11T05:55:09.036Z,1004.80
2019-05-11T05:56:09.043Z,1004.84
2019-05-11T05:57:09.024Z,1004.84
2019-05-11T05:58:09.045Z,1004.86
2019-05-11T05:59:09.021Z,1004.90
2019-05-11T06:00:09.075Z,1004.88
2019-05-11T06:01:10.271Z,1004.89
2019-05-11T06:02:09.013Z,1004.88
2019-05-11T06:03:09.001Z,1004.86
2019-05-11T06:04:08.992Z,1004.88
2019-05-11T06:05:09.189Z,1004.85
2019-05-11T06:06:08.989Z,1004.87
2019-05-11T06:07:08.994Z,1004.85
2019-05-11T06:08:08.975Z,1004.86
2019-05-11T06:09:08.979Z,1004.90
2019-05-11T06:10:08.969Z,1004.90
2019-05-11T06:11:08.961Z,1004.92
2019-05-11T06:12:09.168Z,1004.94
2019-05-11T06:13:08.960Z,1004.92
2019-05-11T06:14:08.957Z,1004.92
2019-05-11T06:15:08.952Z,1004.94
2019-05-11T06:16:08.960Z,1004.96
2019-05-11T06:17:08.936Z,1004.92
2019-05-11T06:18:08.946Z,1004.95
2019-05-11T06:19:08.928Z,1004.95
2019-05-11T06:20:09.350Z,1004.97
2019-05-11T06:21:08.922Z,1004.99
2019-05-11T06:22:08.912Z,1005.02
2019-05-11T06:23:08.914Z,1005.04
2019-05-11T06:24:09.110Z,1005.05
2019-05-11T06:25:08.913Z,1005.06
2019-05-11T06:26:09.102Z,1005.08
2019-05-11T06:27:08.899Z,1005.09
2019-05-11T06:28:09.093Z,1005.09
2019-05-11T06:29:08.904Z,1005.06
2019-05-11T06:30:08.898Z,1005.09
2019-05-11T06:31:08.942Z,1005.09
2019-05-11T06:32:08.903Z,1005.07
2019-05-11T06:33:08.936Z,1005.07
2019-05-11T06:34:08.876Z,1005.05
2019-05-11T06:35:08.948Z,1005.05
2019-05-11T06:36:08.862Z,1005.05
2019-05-11T06:37:08.858Z,1005.06
2019-05-11T06:38:08.857Z,1005.04
2019-05-11T06:39:08.865Z,1005.04
2019-05-11T06:40:08.838Z,1005.05
2019-05-11T06:41:08.846Z,1005.01
2019-05-11T06:42:08.859Z,1005.03
2019-05-11T06:43:08.895Z,1004.97
2019-05-11T06:44:08.842Z,1004.95
2019-05-11T06:45:08.821Z,1004.97
2019-05-11T06:46:09.038Z,1004.95
2019-05-11T06:47:09.029Z,1004.94
2019-05-11T06:48:08.812Z,1004.98
2019-05-11T06:49:08.821Z,1005.04
2019-05-11T06:50:08.793Z,1005.03
2019-05-11T06:51:09.002Z,1005.08
2019-05-11T06:52:08.798Z,1005.06
2019-05-11T06:53:08.788Z,1005.10
2019-05-11T06:54:08.777Z,1005.09
2019-05-11T06:55:08.789Z,1005.09
2019-05-11T06:56:08.776Z,1005.13
2019-05-11T06:57:08.972Z,1005.15
2019-05-11T06:58:08.781Z,1005.13
2019-05-11T06:59:08.964Z,1005.14
2019-05-11T07:00:09.013Z,1005.21
2019-05-11T07:01:08.747Z,1005.19
2019-05-11T07:02:08.815Z,1005.17
2019-05-11T07:03:08.783Z,1005.21
2019-05-11T07:04:08.764Z,1005.21
2019-05-11T07:05:08.738Z,1005.26
2019-05-11T07:06:08.764Z,1005.27
2019-05-11T07:07:08.724Z,1005.30
2019-05-11T07:08:08.720Z,1005.28
2019-05-11T07:09:08.735Z,1005.33
2019-05-11T07:10:08.714Z,1005.40
2019-05-11T07:11:08.711Z,1005.34
2019-05-11T07:12:08.840Z,1005.37
2019-05-11T07:13:08.701Z,1005.36
2019-05-11T07:14:19.876Z,1005.33
2019-05-11T07:15:08.695Z,1005.38
2019-05-11T07:16:08.700Z,1005.38
2019-05-11T07:17:08.678Z,1005.40
2019-05-11T07:18:08.685Z,1005.40
2019-05-11T07:19:08.667Z,1005.36
2019-05-11T07:20:08.663Z,1005.39
2019-05-11T07:21:08.878Z,1005.38
2019-05-11T07:22:08.670Z,1005.35
2019-05-11T07:23:08.673Z,1005.34
2019-05-11T07:24:08.653Z,1005.36
2019-05-11T07:25:08.655Z,1005.34
2019-05-11T07:26:08.637Z,1005.37
2019-05-11T07:27:08.636Z,1005.41
2019-05-11T07:28:08.637Z,1005.43
2019-05-11T07:29:08.622Z,1005.39
2019-05-11T07:30:08.832Z,1005.41
2019-05-11T07:31:08.825Z,1005.40
2019-05-11T07:32:19.694Z,1005.37
2019-05-11T07:33:08.599Z,1005.45
2019-05-11T07:34:08.610Z,1005.39
2019-05-11T07:35:08.840Z,1005.42
2019-05-11T07:36:08.587Z,1005.42
2019-05-11T07:37:08.811Z,1005.43
2019-05-11T07:38:08.579Z,1005.43
2019-05-11T07:39:08.586Z,1005.42
2019-05-11T07:40:08.577Z,1005.44
2019-05-11T07:41:08.877Z,1005.46
2019-05-11T07:42:08.592Z,1005.48
2019-05-11T07:43:09.857Z,1005.42
2019-05-11T07:44:10.101Z,1005.43
2019-05-11T07:45:09.041Z,1005.49
2019-05-11T07:46:08.539Z,1005.48
2019-05-11T07:47:08.565Z,1005.47
2019-05-11T07:48:08.548Z,1005.49
2019-05-11T07:49:08.819Z,1005.51
2019-05-11T07:50:08.565Z,1005.51
2019-05-11T07:51:09.006Z,1005.49
2019-05-11T07:52:08.518Z,1005.55
2019-05-11T07:53:08.507Z,1005.53
2019-05-11T07:54:08.708Z,1005.51
2019-05-11T07:55:08.835Z,1005.55
2019-05-11T07:56:08.486Z,1005.62
2019-05-11T07:57:08.680Z,1005.55
2019-05-11T07:58:08.489Z,1005.59
2019-05-11T07:59:08.470Z,1005.58
2019-05-11T08:00:08.689Z,1005.58
2019-05-11T08:01:08.873Z,1005.63
2019-05-11T08:02:09.002Z,1005.62
2019-05-11T08:03:09.129Z,1005.65
2019-05-11T08:04:08.445Z,1005.68
2019-05-11T08:05:08.818Z,1005.66
2019-05-11T08:06:08.975Z,1005.65
2019-05-11T08:07:08.638Z,1005.68
2019-05-11T08:08:08.796Z,1005.71
2019-05-11T08:09:08.663Z,1005.71
2019-05-11T08:10:08.514Z,1005.73
2019-05-11T08:11:08.407Z,1005.75
2019-05-11T08:12:09.057Z,1005.74
2019-05-11T08:13:09.171Z,1005.76
2019-05-11T08:14:08.408Z,1005.76
2019-05-11T08:15:12.925Z,1005.77
2019-05-11T08:16:08.591Z,1005.79
2019-05-11T08:17:08.781Z,1005.84
2019-05-11T08:18:08.700Z,1005.81
2019-05-11T08:19:10.799Z,1005.81
2019-05-11T08:20:08.563Z,1005.89
2019-05-11T08:21:08.977Z,1005.86
2019-05-11T08:22:08.660Z,1005.91
2019-05-11T08:23:09.044Z,1005.92
2019-05-11T08:24:09.243Z,1005.94
2019-05-11T08:25:09.344Z,1005.98
2019-05-11T08:26:08.569Z,1005.99
2019-05-11T08:27:08.533Z,1006.04
2019-05-11T08:28:11.745Z,1006.00
2019-05-11T08:29:08.531Z,1006.07
2019-05-11T08:30:08.588Z,1006.03
2019-05-11T08:31:08.313Z,1006.02
2019-05-11T08:32:08.365Z,1006.02
2019-05-11T08:33:08.665Z,1006.02
2019-05-11T08:34:09.003Z,1006.02
2019-05-11T08:35:08.640Z,1006.05
2019-05-11T08:36:08.534Z,1006.05
2019-05-11T08:37:08.911Z,1006.02
2019-05-11T08:38:08.911Z,1006.05
2019-05-11T08:39:08.473Z,1006.07
2019-05-11T08:40:08.255Z,1006.08
2019-05-11T08:41:08.297Z,1006.11
2019-05-11T08:42:08.734Z,1006.11
2019-05-11T08:43:08.847Z,1006.15
2019-05-11T08:44:08.868Z,1006.21
2019-05-11T08:45:19.421Z,1006.18
2019-05-11T08:46:08.246Z,1006.19
2019-05-11T08:47:08.634Z,1006.22
2019-05-11T08:48:08.437Z,1006.21
2019-05-11T08:49:08.758Z,1006.27
2019-05-11T08:50:08.261Z,1006.29
2019-05-11T08:51:08.550Z,1006.27
2019-05-11T08:52:08.287Z,1006.29
2019-05-11T08:53:08.710Z,1006.30
2019-05-11T08:54:08.944Z,1006.30
2019-05-11T08:55:08.496Z,1006.31
2019-05-11T08:56:11.067Z,1006.35
2019-05-11T08:57:08.387Z,1006.33
2019-05-11T08:58:08.170Z,1006.31
2019-05-11T08:59:08.382Z,1006.36
2019-05-11T09:00:08.584Z,1006.34
2019-05-11T09:01:08.769Z,1006.37
2019-05-11T09:02:08.348Z,1006.39
2019-05-11T09:03:08.651Z,1006.40
2019-05-11T09:04:08.945Z,1006.41
2019-05-11T09:05:08.412Z,1006.45
2019-05-11T09:06:08.560Z,1006.45
2019-05-11T09:07:08.127Z,1006.55
2019-05-11T09:08:08.359Z,1006.54
2019-05-11T09:09:08.945Z,1006.55
2019-05-11T09:10:08.302Z,1006.58
2019-05-11T09:11:08.511Z,1006.57
2019-05-11T09:12:08.097Z,1006.60
2019-05-11T09:13:08.169Z,1006.62
2019-05-11T09:14:08.478Z,1006.65
2019-05-11T09:15:08.819Z,1006.68
2019-05-11T09:16:08.099Z,1006.69
2019-05-11T09:17:08.074Z,1006.68
2019-05-11T09:18:08.515Z,1006.70
2019-05-11T09:19:08.756Z,1006.75
2019-05-11T09:20:08.691Z,1006.74
2019-05-11T09:21:08.474Z,1006.77
2019-05-11T09:22:08.403Z,1006.80
2019-05-11T09:23:08.307Z,1006.83
2019-05-11T09:24:08.607Z,1006.84
2019-05-11T09:25:08.989Z,1006.81
2019-05-11T09:26:08.815Z,1006.88
2019-05-11T09:27:08.229Z,1006.84
2019-05-11T09:28:08.589Z,1006.87
2019-05-11T09:29:08.839Z,1006.87
2019-05-11T09:30:08.384Z,1006.87
2019-05-11T09:31:08.638Z,1006.93
2019-05-11T09:32:08.878Z,1006.95
2019-05-11T09:33:08.717Z,1006.92
2019-05-11T09:34:08.980Z,1006.93
2019-05-11T09:35:08.396Z,1006.94
2019-05-11T09:36:08.661Z,1006.96
2019-05-11T09:37:08.108Z,1006.99
2019-05-11T09:38:08.155Z,1006.95
2019-05-11T09:39:08.465Z,1006.99
2019-05-11T09:40:08.145Z,1006.96
2019-05-11T09:41:11.694Z,1006.98
2019-05-11T09:42:07.951Z,1007.01
2019-05-11T09:43:08.627Z,1007.01
2019-05-11T09:44:08.950Z,1007.03
2019-05-11T09:45:08.256Z,1007.05
2019-05-11T09:46:08.472Z,1007.05
2019-05-11T09:47:08.537Z,1007.06
2019-05-11T09:48:08.655Z,1007.12
2019-05-11T09:49:08.232Z,1007.13
2019-05-11T09:50:08.623Z,1007.12
2019-05-11T09:51:08.093Z,1007.14
2019-05-11T09:52:08.112Z,1007.15
2019-05-11T09:53:08.627Z,1007.19
2019-05-11T09:54:08.102Z,1007.14
2019-05-11T09:55:08.705Z,1007.17
2019-05-11T09:56:08.225Z,1007.17
2019-05-11T09:57:08.488Z,1007.21
2019-05-11T09:58:08.545Z,1007.21
2019-05-11T09:59:08.781Z,1007.21
2019-05-11T10:00:08.667Z,1007.27
2019-05-11T10:01:08.828Z,1007.30
2019-05-11T10:02:08.118Z,1007.32
2019-05-11T10:03:08.362Z,1007.27
2019-05-11T10:04:09.000Z,1007.31
2019-05-11T10:05:08.423Z,1007.31
2019-05-11T10:06:08.441Z,1007.30
2019-05-11T10:07:09.022Z,1007.32
2019-05-11T10:08:08.037Z,1007.33
2019-05-11T10:09:08.385Z,1007.33
2019-05-11T10:10:09.144Z,1007.30
2019-05-11T10:11:08.479Z,1007.33
2019-05-11T10:12:08.304Z,1007.31
2019-05-11T10:13:08.241Z,1007.28
2019-05-11T10:14:08.453Z,1007.36
2019-05-11T10:15:08.472Z,1007.33
2019-05-11T10:16:10.547Z,1007.31
2019-05-11T10:17:07.953Z,1007.31
2019-05-11T10:18:08.319Z,1007.33
2019-05-11T10:19:08.487Z,1007.31
2019-05-11T10:20:09.140Z,1007.28
2019-05-11T10:21:08.216Z,1007.31
2019-05-11T10:22:08.150Z,1007.33
2019-05-11T10:23:08.304Z,1007.30
2019-05-11T10:24:08.655Z,1007.33
2019-05-11T10:25:08.964Z,1007.33
2019-05-11T10:26:08.109Z,1007.34
2019-05-11T10:27:08.420Z,1007.37
2019-05-11T10:28:08.685Z,1007.38
2019-05-11T10:29:08.062Z,1007.46
2019-05-11T10:30:08.308Z,1007.40
2019-05-11T10:31:08.564Z,1007.41
2019-05-11T10:32:08.069Z,1007.46
2019-05-11T10:33:08.372Z,1007.46
2019-05-11T10:34:08.633Z,1007.49
2019-05-11T10:35:08.189Z,1007.49
2019-05-11T10:36:08.328Z,1007.50
2019-05-11T10:37:08.565Z,1007.53
2019-05-11T10:38:09.062Z,1007.56
2019-05-11T10:39:07.941Z,1007.58
2019-05-11T10:40:09.537Z,1007.59
2019-05-11T10:41:08.670Z,1007.61
2019-05-11T10:42:08.666Z,1007.61
2019-05-11T10:43:08.058Z,1007.62
2019-05-11T10:44:08.348Z,1007.63
2019-05-11T10:45:09.049Z,1007.63
2019-05-11T10:46:17.000Z,1007.64
2019-05-11T10:47:08.280Z,1007.68
2019-05-11T10:48:08.805Z,1007.69
2019-05-11T10:49:08.134Z,1007.67
2019-05-11T10:50:08.601Z,1007.71
2019-05-11T10:51:08.334Z,1007.69
2019-05-11T10:52:09.747Z,1007.71
2019-05-11T10:53:08.035Z,1007.71
2019-05-11T10:54:08.709Z,1007.76
2019-05-11T10:55:08.799Z,1007.75
2019-05-11T10:56:08.751Z,1007.76
2019-05-11T10:57:08.430Z,1007.73
2019-05-11T10:58:08.627Z,1007.74
2019-05-11T10:59:08.045Z,1007.72
2019-05-11T11:00:08.397Z,1007.73
2019-05-11T11:01:08.885Z,1007.71
2019-05-11T11:02:08.091Z,1007.73
2019-05-11T11:03:08.499Z,1007.75
2019-05-11T11:04:08.059Z,1007.80
2019-05-11T11:05:08.237Z,1007.83
2019-05-11T11:06:08.446Z,1007.86
2019-05-11T11:07:07.801Z,1007.84
2019-05-11T11:08:08.326Z,1007.85
2019-05-11T11:09:08.287Z,1007.87
2019-05-11T11:10:08.898Z,1007.88
2019-05-11T11:11:08.199Z,1007.92
2019-05-11T11:12:08.279Z,1007.92
2019-05-11T11:13:08.363Z,1007.91
2019-05-11T11:14:08.762Z,1007.93
2019-05-11T11:15:07.894Z,1007.90
2019-05-11T11:16:08.376Z,1007.93
2019-05-11T11:17:08.730Z,1007.93
2019-05-11T11:18:08.535Z,1007.94
2019-05-11T11:19:07.693Z,1008.00
2019-05-11T11:20:08.640Z,1007.98
2019-05-11T11:21:08.685Z,1008.01
2019-05-11T11:22:30.284Z,1007.98
2019-05-11T11:23:08.903Z,1007.94
2019-05-11T11:24:07.831Z,1007.92
2019-05-11T11:25:07.896Z,1007.93
2019-05-11T11:26:08.182Z,1007.95
2019-05-11T11:27:08.668Z,1007.96
2019-05-11T11:28:08.462Z,1007.95
2019-05-11T11:29:08.620Z,1008.00
2019-05-11T11:30:09.218Z,1007.97
2019-05-11T11:31:07.880Z,1008.03
2019-05-11T11:32:08.111Z,1008.05
2019-05-11T11:33:08.085Z,1008.01
2019-05-11T11:34:08.168Z,1008.05
2019-05-11T11:35:08.473Z,1008.07
2019-05-11T11:36:08.531Z,1008.07
2019-05-11T11:37:08.381Z,1008.12
2019-05-11T11:38:08.659Z,1008.06
2019-05-11T11:39:08.338Z,1008.09
2019-05-11T11:40:08.344Z,1008.09
2019-05-11T11:41:07.763Z,1008.13
2019-05-11T11:42:08.414Z,1008.17
2019-05-11T11:43:08.612Z,1008.18
2019-05-11T11:44:08.033Z,1008.17
2019-05-11T11:45:08.002Z,1008.22
2019-05-11T11:46:10.162Z,1008.19
2019-05-11T11:47:08.725Z,1008.24
2019-05-11T11:48:08.710Z,1008.23
2019-05-11T11:49:08.303Z,1008.34
2019-05-11T11:50:09.094Z,1008.28
2019-05-11T11:51:08.051Z,1008.35
2019-05-11T11:52:08.250Z,1008.38
2019-05-11T11:53:08.412Z,1008.34
2019-05-11T11:54:08.806Z,1008.38
2019-05-11T11:55:08.334Z,1008.38
2019-05-11T11:56:08.381Z,1008.36
2019-05-11T11:57:07.778Z,1008.40
2019-05-11T11:58:08.258Z,1008.39
2019-05-11T11:59:08.488Z,1008.39
2019-05-11T12:00:09.084Z,1008.37
2019-05-11T12:01:08.256Z,1008.42
2019-05-11T12:02:08.585Z,1008.49
2019-05-11T12:03:08.113Z,1008.54
2019-05-11T12:04:08.257Z,1008.53
2019-05-11T12:05:08.839Z,1008.58
2019-05-11T12:06:08.724Z,1008.61
2019-05-11T12:07:08.522Z,1008.64